Decoded Metar for OIZB (ZABOL in IRAN) (IATA:N/A) | Meteo·Mobile Aviation Weather
aviador You're here:

OIZB Decoded Metar

ZABOL in IRAN
Report Time2018-11-18 20:00:00
UTC Time2018-11-18 20:58:59
Flight Rules vfr VFR
Wind340° at 06 kt
W.Decomp.*RWY 34: 6.0 kt HW 0.2 kt LCW
W.Rank340° ranks 3
Current wind is below 340° avg. (14.5)
Visibility9999 m
Phenomena:N/A
Clouds:N/A
Expected CloudBase > 4,000 ft AGL from Temp-Dew spread
CeilingNone
Temp13°C (ISA +1)
Dew Point03°C (51% RH)
AAT9.4°C
QNH1019 hPa
Density Alt1,650 ft
Elevation1,604 ft
Report Wrong Elevation
Raw Report
METAR OIZB 182000Z 34006KT CAVOK 13/03 Q1019=

Extra information for OIZB:More info

Metar Taf Metar & Taf Last 4 Metars F.Rules Stats Wind Profile Meteogram Temp Stats Airport Information Weather charts Add Link Nearby VenuesMetar ALERT Operation Metar Decoded Social comments